KSNY/SNY METAR and TAF weather

Enter ICAO airport designator
Station Type Date Time Source
KSNY METAR 2019/12/06 19:53 UTC NOAA

KSNY 061953Z AUTO 23009KT 10SM CLR 09/00 A3019 RMK AO2 SLP236 T00890000


Station Type Date Time Source
KSNY Decoded METAR 2019/12/06 19:53 UTC NOAA

SIDNEY MUNICIPAL AIRPORT, NE, United States (KSNY) 41-06N 102-59W 1307M
Dec 06, 2019 - 02:53 PM EST / 2019.12.06 1953 UTC
Wind: from the SW (230 degrees) at 10 MPH (9 KT):0
Visibility: 10 mile(s):0
Sky conditions: clear
Temperature: 48.0 F (8.9 C)
Dew Point: 32.0 F (0.0 C)
Relative Humidity: 53%
Pressure (altimeter): 30.19 in. Hg (1022 hPa)
ob: KSNY 061953Z AUTO 23009KT 10SM CLR 09/00 A3019 RMK AO2 SLP236 T00890000
cycle: 20

Station Type Date Time Source
KSNY TAF 2019/12/08 12:27 UTC NOAA

TAF KSNY 081120Z 0812/0912 26010KT P6SM BKN150
FM081800 23010KT P6SM BKN150
FM090400 35015G25KT P6SM OVC100
FM090600 35020G30KT P6SM OVC040
AMD NOT SKED

Example: see airport list